Terminal Aerodrome Forecast
Issued by NWS Sioux Falls, SD

Home | Current Version | Previous Version | Graphics & Text | Print | Product List | Glossary Off
Versions: 1 2 3 4 5 6 7 8 9 10 11 12 13 14 15 16 17 18 19 20 21 22 23 24 25 26 27 28 29 30 31 32 33 34

000
FTUS43 KFSD 011607 AAA
TAFSUX
TAF AMD
KSUX 011607Z 0116/0212 35022G32KT 1 1/2SM -SN OVC015
     FM012200 34018G25KT P6SM SCT025 BKN050
     FM020200 33012KT P6SM SCT050
     FM020700 32006KT P6SM SKC=

USA.gov is the U.S. government's official web portal to all federal, state and local government web resources and services.